Time;durP1;ratioP1;P1;durP2;ratioP2;P2;SDS_P1;SDS_P2;PMS_P1;PMS_P2;Temp;Humidity;BMP_temperature;BMP_pressure;BME280_temperature;BME280_humidity;BME280_pressure;Samples;Min_cycle;Max_cycle;Signal;HPM_P1;HPM_P2
2021/08/11 00:01:18;;;;;;;11.63;9.10;;;14.60;99.90;;;;;;5048302;28;20086;-47
2021/08/11 00:03:44;;;;;;;17.63;11.82;;;14.60;99.90;;;;;;5047616;28;20111;-46
2021/08/11 00:06:09;;;;;;;15.77;11.00;;;14.60;99.90;;;;;;5048409;28;20028;-48
2021/08/11 00:08:35;;;;;;;13.10;10.70;;;14.60;99.90;;;;;;5048312;28;20024;-46
2021/08/11 00:11:00;;;;;;;17.65;11.98;;;14.60;99.90;;;;;;5048304;28;20036;-48
2021/08/11 00:13:26;;;;;;;13.27;10.25;;;14.60;99.90;;;;;;5047437;28;20045;-48
2021/08/11 00:15:51;;;;;;;17.83;12.27;;;14.60;99.90;;;;;;5046922;28;20055;-48
2021/08/11 00:18:17;;;;;;;19.27;11.38;;;14.50;99.90;;;;;;5048175;28;20391;-47
2021/08/11 00:20:43;;;;;;;13.93;10.77;;;14.60;99.90;;;;;;5048374;28;20104;-46
2021/08/11 00:23:09;;;;;;;16.10;11.77;;;14.60;99.90;;;;;;5048273;28;20108;-46
2021/08/11 00:25:34;;;;;;;17.05;11.80;;;14.50;99.90;;;;;;5047604;28;20032;-46
2021/08/11 00:28:00;;;;;;;16.10;11.05;;;14.50;99.90;;;;;;5048085;28;20029;-46
2021/08/11 00:30:25;;;;;;;17.95;12.43;;;14.50;99.90;;;;;;5048339;28;20032;-46
2021/08/11 00:32:51;;;;;;;17.42;12.55;;;14.50;99.90;;;;;;5046524;28;20056;-45
2021/08/11 00:35:17;;;;;;;16.40;12.38;;;14.50;99.90;;;;;;5046337;28;20226;-46
2021/08/11 00:37:42;;;;;;;15.73;12.73;;;14.50;99.90;;;;;;5052447;28;20025;-47
2021/08/11 00:40:09;;;;;;;16.55;10.85;;;14.50;99.90;;;;;;5052532;28;20252;-46
2021/08/11 00:42:35;;;;;;;16.08;11.13;;;14.50;99.90;;;;;;5051914;28;20029;-47
2021/08/11 00:45:02;;;;;;;18.67;12.88;;;14.50;99.90;;;;;;5051310;28;20024;-47
2021/08/11 00:47:32;;;;;;;16.60;12.90;;;14.50;99.90;;;;;;5051802;28;20020;-47
2021/08/11 00:49:58;;;;;;;14.05;10.80;;;14.50;99.90;;;;;;5051930;28;20021;-49
2021/08/11 00:52:23;;;;;;;17.52;12.25;;;14.50;99.90;;;;;;5051748;28;20055;-48
2021/08/11 00:54:51;;;;;;;14.75;12.13;;;14.40;99.90;;;;;;5051406;28;20032;-47
2021/08/11 00:57:18;;;;;;;22.90;12.45;;;14.40;99.90;;;;;;5051657;28;20061;-47
2021/08/11 00:59:44;;;;;;;17.75;12.00;;;14.40;99.90;;;;;;5051647;28;20025;-46
2021/08/11 01:02:13;;;;;;;14.30;10.88;;;14.40;99.90;;;;;;5051525;28;20020;-47
2021/08/11 01:04:39;;;;;;;17.08;11.68;;;14.30;99.90;;;;;;5051084;28;20108;-49
2021/08/11 01:07:07;;;;;;;15.05;10.20;;;14.30;99.90;;;;;;5051433;28;20155;-46
2021/08/11 01:09:33;;;;;;;14.10;10.07;;;14.30;99.90;;;;;;5050152;28;20517;-47
2021/08/11 01:11:59;;;;;;;16.27;11.35;;;14.30;99.90;;;;;;5051420;28;20509;-48
2021/08/11 01:14:25;;;;;;;17.00;12.85;;;14.30;99.90;;;;;;5050677;28;20041;-48
2021/08/11 01:16:51;;;;;;;19.58;12.77;;;14.20;99.90;;;;;;5051331;28;20042;-47
2021/08/11 01:19:18;;;;;;;15.95;12.07;;;14.20;99.90;;;;;;5051563;28;20490;-48
2021/08/11 01:22:00;;;;;;;17.45;12.60;;;14.20;99.90;;;;;;5051501;28;20130;-49
2021/08/11 01:24:48;;;;;;;17.10;11.38;;;14.20;99.90;;;;;;5050947;28;20028;-48
2021/08/11 01:27:26;;;;;;;13.30;10.38;;;14.20;99.90;;;;;;5051568;28;20490;-46
2021/08/11 01:30:10;;;;;;;16.55;12.95;;;14.10;99.90;;;;;;5051339;28;20104;-48
2021/08/11 01:32:59;;;;;;;16.77;12.57;;;14.10;99.90;;;;;;5051166;28;20068;-46
2021/08/11 01:35:34;;;;;;;15.30;11.40;;;14.10;99.90;;;;;;5050246;28;20033;-47
2021/08/11 01:38:04;;;;;;;17.70;12.50;;;14.10;99.90;;;;;;5050991;28;20021;-46
2021/08/11 01:40:34;;;;;;;18.42;12.85;;;14.00;99.90;;;;;;5051109;28;20025;-49
2021/08/11 01:43:02;;;;;;;16.77;12.27;;;14.00;99.90;;;;;;5049486;28;20094;-46
2021/08/11 01:45:33;;;;;;;16.00;11.15;;;14.00;99.90;;;;;;5050100;28;20095;-48
2021/08/11 01:48:03;;;;;;;13.52;10.70;;;14.00;99.90;;;;;;5050258;28;20021;-48
2021/08/11 01:50:32;;;;;;;;;;;14.00;99.90;;;;;;5051408;28;20029;-46
2021/08/11 01:52:59;;;;;;;19.02;12.05;;;14.00;99.90;;;;;;5049689;28;20357;-47
2021/08/11 01:55:24;;;;;;;22.40;13.02;;;14.00;99.90;;;;;;5048635;28;20105;-46
2021/08/11 01:57:52;;;;;;;19.17;13.07;;;14.00;99.90;;;;;;5050619;28;20036;-47
2021/08/11 02:00:21;;;;;;;20.45;13.13;;;13.90;99.90;;;;;;5032518;28;20078;-47
2021/08/11 02:02:48;;;;;;;17.67;13.55;;;13.90;99.90;;;;;;5050394;28;20021;-48
2021/08/11 02:05:15;;;;;;;19.42;13.73;;;13.90;99.90;;;;;;5049926;28;20441;-46
2021/08/11 02:07:41;;;;;;;19.65;13.15;;;13.90;99.90;;;;;;5050455;28;20028;-45
2021/08/11 02:10:11;;;;;;;21.58;15.40;;;13.90;99.90;;;;;;5050804;28;20025;-47
2021/08/11 02:12:37;;;;;;;23.75;16.48;;;13.90;99.90;;;;;;5050272;28;20106;-46
2021/08/11 02:15:05;;;;;;;25.35;15.68;;;13.90;99.90;;;;;;5049646;28;20088;-46
2021/08/11 02:17:31;;;;;;;20.02;15.48;;;13.90;99.90;;;;;;5048908;28;20040;-46
2021/08/11 02:19:56;;;;;;;22.60;15.88;;;13.90;99.90;;;;;;5050283;28;20248;-46
2021/08/11 02:22:22;;;;;;;18.95;13.77;;;13.90;99.90;;;;;;5050119;28;20098;-49
2021/08/11 02:24:47;;;;;;;21.20;14.15;;;13.90;99.90;;;;;;5049410;28;20083;-47
2021/08/11 02:27:20;;;;;;;19.73;14.10;;;13.80;99.90;;;;;;5048864;28;20024;-47
2021/08/11 02:30:00;;;;;;;17.50;13.07;;;13.80;99.90;;;;;;5050151;28;20498;-47
2021/08/11 02:32:52;;;;;;;21.27;16.13;;;13.80;99.90;;;;;;5050220;28;20040;-48
2021/08/11 02:35:28;;;;;;;26.75;16.65;;;13.80;99.90;;;;;;5049736;28;20035;-47
2021/08/11 02:38:11;;;;;;;19.80;14.23;;;13.80;99.90;;;;;;5049991;28;20068;-48
2021/08/11 02:40:41;;;;;;;18.70;13.73;;;13.80;99.90;;;;;;5050036;28;20028;-47
2021/08/11 02:43:16;;;;;;;21.10;14.20;;;13.80;99.90;;;;;;5049904;28;20029;-48
2021/08/11 02:45:43;;;;;;;22.55;15.50;;;13.80;99.90;;;;;;5049671;28;20638;-47
2021/08/11 02:48:13;;;;;;;17.83;13.65;;;13.80;99.90;;;;;;5049871;28;20376;-46
2021/08/11 02:50:40;;;;;;;26.33;16.92;;;13.70;99.90;;;;;;5049753;28;20025;-47
2021/08/11 02:53:07;;;;;;;18.52;13.85;;;13.70;99.90;;;;;;5049560;28;20395;-46
2021/08/11 02:55:36;;;;;;;20.55;14.23;;;13.70;99.90;;;;;;5048915;28;20028;-46
2021/08/11 02:58:03;;;;;;;19.35;13.20;;;13.70;99.90;;;;;;5048778;28;20037;-46
2021/08/11 03:00:28;;;;;;;24.70;16.17;;;13.70;99.90;;;;;;5049416;28;20037;-45
2021/08/11 03:02:54;;;;;;;20.40;14.25;;;13.80;99.90;;;;;;5049274;28;20362;-45
2021/08/11 03:05:20;;;;;;;17.30;13.30;;;13.70;99.90;;;;;;5048762;28;20032;-46
2021/08/11 03:07:46;;;;;;;18.33;13.73;;;13.70;99.90;;;;;;5049260;28;20025;-46
2021/08/11 03:10:12;;;;;;;20.92;15.68;;;13.70;99.90;;;;;;5049177;28;20104;-48
2021/08/11 03:12:37;;;;;;;22.52;15.25;;;13.70;99.90;;;;;;5047755;28;20037;-46
2021/08/11 03:15:06;;;;;;;20.25;14.80;;;13.60;99.90;;;;;;5048579;28;20020;-49
2021/08/11 03:17:31;;;;;;;16.27;12.55;;;13.60;99.90;;;;;;5049410;28;20052;-47
2021/08/11 03:19:57;;;;;;;21.98;15.02;;;13.60;99.90;;;;;;5049038;28;20118;-45
2021/08/11 03:22:23;;;;;;;19.35;13.02;;;13.50;99.90;;;;;;5047697;28;20024;-46
2021/08/11 03:24:48;;;;;;;17.92;12.50;;;13.50;99.90;;;;;;5048531;28;20052;-45
2021/08/11 03:27:14;;;;;;;20.33;14.48;;;13.50;99.90;;;;;;5047619;28;20498;-44
2021/08/11 03:29:39;;;;;;;19.42;13.98;;;13.50;99.90;;;;;;5048957;28;20029;-45
2021/08/11 03:32:05;;;;;;;22.02;13.68;;;13.50;99.90;;;;;;5048787;28;20539;-45
2021/08/11 03:34:31;;;;;;;20.60;14.02;;;13.50;99.90;;;;;;5048354;28;20032;-45
2021/08/11 03:36:57;;;;;;;20.65;15.13;;;13.50;99.90;;;;;;5048756;28;20025;-49
2021/08/11 03:39:22;;;;;;;22.73;14.55;;;13.50;99.90;;;;;;5048664;28;20659;-45
2021/08/11 03:41:48;;;;;;;25.17;15.98;;;13.40;99.90;;;;;;5048492;28;20041;-45
2021/08/11 03:44:13;;;;;;;22.60;16.10;;;13.40;99.90;;;;;;5047898;28;20518;-46
2021/08/11 03:46:39;;;;;;;23.90;14.65;;;13.50;99.90;;;;;;5047127;28;20458;-47
2021/08/11 03:49:04;;;;;;;19.25;13.80;;;13.50;99.90;;;;;;5048699;28;20027;-46
2021/08/11 03:51:30;;;;;;;20.92;13.85;;;13.40;99.90;;;;;;5048725;28;20021;-46
2021/08/11 03:53:55;;;;;;;20.95;14.40;;;13.40;99.90;;;;;;5047973;28;20020;-46
2021/08/11 03:56:21;;;;;;;21.33;15.38;;;13.40;99.90;;;;;;5048599;28;20051;-46
2021/08/11 03:58:46;;;;;;;22.05;15.02;;;13.40;99.90;;;;;;5048470;28;20025;-46
2021/08/11 04:01:12;;;;;;;20.33;14.00;;;13.40;99.90;;;;;;5048343;28;20042;-47
2021/08/11 04:03:37;;;;;;;17.45;13.18;;;13.40;99.90;;;;;;5047710;28;20033;-45
2021/08/11 04:06:03;;;;;;;17.70;12.77;;;13.40;99.90;;;;;;5047007;28;20021;-46
2021/08/11 04:08:28;;;;;;;15.65;12.02;;;13.40;99.90;;;;;;5048495;28;20017;-49
2021/08/11 04:10:54;;;;;;;18.38;13.32;;;13.40;99.90;;;;;;5048651;28;20571;-47
2021/08/11 04:13:20;;;;;;;19.63;14.05;;;13.40;99.90;;;;;;5047624;28;20032;-47
2021/08/11 04:15:46;;;;;;;20.80;14.07;;;13.40;99.90;;;;;;5048224;28;20028;-46
2021/08/11 04:18:12;;;;;;;20.08;13.55;;;13.40;99.90;;;;;;5048199;28;20029;-46
2021/08/11 04:20:39;;;;;;;20.45;13.10;;;13.40;99.90;;;;;;5048436;28;20512;-46
2021/08/11 04:23:06;;;;;;;17.15;12.18;;;13.40;99.90;;;;;;5048235;28;20037;-46
2021/08/11 04:25:36;;;;;;;17.75;12.68;;;13.40;99.90;;;;;;5047700;28;20025;-46
2021/08/11 04:28:02;;;;;;;20.85;10.45;;;13.50;99.90;;;;;;5046977;28;20025;-46
2021/08/11 04:30:27;;;;;;;15.43;11.73;;;13.40;99.90;;;;;;5048008;28;20029;-46
2021/08/11 04:32:53;;;;;;;19.17;11.98;;;13.50;99.90;;;;;;5046993;28;20511;-46
2021/08/11 04:35:18;;;;;;;18.15;12.35;;;13.50;99.90;;;;;;5047623;28;20112;-46
2021/08/11 04:37:44;;;;;;;15.15;10.80;;;13.40;99.90;;;;;;5048025;28;20074;-46
2021/08/11 04:40:10;;;;;;;16.38;11.50;;;13.50;99.90;;;;;;5048185;28;20490;-46
2021/08/11 04:42:35;;;;;;;15.23;11.13;;;13.50;99.90;;;;;;5046615;28;20091;-45
2021/08/11 04:45:02;;;;;;;14.27;10.27;;;13.50;99.90;;;;;;5047286;28;20021;-46
2021/08/11 04:47:27;;;;;;;15.43;10.75;;;13.50;99.90;;;;;;5048033;28;20433;-46
2021/08/11 04:49:53;;;;;;;14.77;10.45;;;13.50;99.90;;;;;;5047955;28;20025;-46
2021/08/11 04:52:18;;;;;;;15.02;10.57;;;13.50;99.90;;;;;;5046593;28;20029;-47
2021/08/11 04:54:44;;;;;;;16.20;11.50;;;13.50;99.90;;;;;;5047229;28;20183;-46
2021/08/11 04:57:10;;;;;;;17.15;12.10;;;13.50;99.90;;;;;;5048000;28;20124;-46
2021/08/11 04:59:35;;;;;;;14.38;11.02;;;13.60;99.90;;;;;;5047849;28;20040;-46
2021/08/11 05:02:00;;;;;;;15.88;11.93;;;13.60;99.90;;;;;;5047834;28;20433;-46
2021/08/11 05:04:27;;;;;;;15.20;11.18;;;13.70;99.90;;;;;;5047151;28;20017;-45
2021/08/11 05:06:52;;;;;;;15.00;11.45;;;13.70;99.90;;;;;;5047704;28;20028;-45
2021/08/11 05:09:18;;;;;;;14.48;11.13;;;13.70;99.90;;;;;;5046593;28;20466;-45
2021/08/11 05:11:43;;;;;;;13.68;10.43;;;13.80;99.90;;;;;;5047728;28;20029;-46
2021/08/11 05:14:09;;;;;;;16.92;10.75;;;13.80;99.90;;;;;;5046826;28;20033;-46
2021/08/11 05:16:35;;;;;;;16.92;11.75;;;13.80;99.90;;;;;;5046267;28;20541;-46
2021/08/11 05:19:00;;;;;;;15.52;11.52;;;13.90;99.90;;;;;;5047624;28;20040;-46
2021/08/11 05:21:26;;;;;;;15.00;10.55;;;13.90;99.90;;;;;;5048178;28;20070;-47
2021/08/11 05:23:51;;;;;;;16.80;10.82;;;14.00;99.90;;;;;;5050779;28;20029;-46
2021/08/11 05:26:18;;;;;;;18.77;11.50;;;14.00;99.90;;;;;;5051308;28;20021;-46
2021/08/11 05:28:45;;;;;;;20.58;11.95;;;14.10;99.90;;;;;;5051121;28;20024;-46
2021/08/11 05:31:11;;;;;;;14.63;9.98;;;14.20;99.90;;;;;;5051393;28;20041;-47
2021/08/11 05:33:37;;;;;;;13.40;9.07;;;14.20;99.90;;;;;;5050448;28;20021;-47
2021/08/11 05:36:03;;;;;;;13.18;9.50;;;14.20;99.90;;;;;;5050971;28;20032;-47
2021/08/11 05:38:30;;;;;;;14.25;9.55;;;14.30;99.90;;;;;;5051094;28;20021;-48
2021/08/11 05:40:55;;;;;;;14.63;9.43;;;14.30;99.90;;;;;;5050984;28;20043;-47
2021/08/11 05:43:21;;;;;;;14.70;10.95;;;14.40;99.90;;;;;;5049143;28;20020;-47
2021/08/11 05:45:47;;;;;;;20.92;12.50;;;14.40;99.90;;;;;;5051148;28;20694;-46
2021/08/11 05:48:12;;;;;;;18.52;12.35;;;14.40;99.90;;;;;;5051105;28;20025;-47
2021/08/11 05:50:38;;;;;;;17.55;12.15;;;14.50;99.90;;;;;;5050899;28;20021;-46
2021/08/11 05:53:04;;;;;;;15.18;11.40;;;14.60;99.90;;;;;;5050523;28;20028;-47
2021/08/11 05:55:29;;;;;;;23.90;15.18;;;14.60;99.90;;;;;;5050106;28;20021;-46
2021/08/11 05:57:55;;;;;;;19.90;13.23;;;14.70;99.90;;;;;;5049177;28;20025;-47
2021/08/11 06:00:21;;;;;;;21.55;13.77;;;14.80;99.90;;;;;;5049203;28;20032;-48
2021/08/11 06:02:46;;;;;;;19.38;12.63;;;14.80;99.90;;;;;;5049079;28;20765;-47
2021/08/11 06:05:12;;;;;;;18.02;13.43;;;14.90;99.90;;;;;;5049668;28;20410;-47
2021/08/11 06:07:38;;;;;;;22.33;13.80;;;15.00;99.90;;;;;;5050327;28;20025;-46
2021/08/11 06:10:05;;;;;;;16.77;12.65;;;15.00;99.90;;;;;;5050307;28;20386;-47
2021/08/11 06:12:30;;;;;;;17.15;13.25;;;15.00;99.90;;;;;;5050035;28;20035;-48
2021/08/11 06:14:57;;;;;;;20.65;12.13;;;15.10;99.90;;;;;;5049626;28;20057;-48
2021/08/11 06:17:22;;;;;;;18.13;13.15;;;15.20;99.90;;;;;;5049947;28;20047;-49
2021/08/11 06:19:48;;;;;;;20.23;13.70;;;15.20;99.90;;;;;;5048930;28;20283;-47
2021/08/11 06:22:15;;;;;;;20.92;13.63;;;15.30;99.90;;;;;;5050228;28;20032;-46
2021/08/11 06:24:41;;;;;;;20.75;13.60;;;15.40;99.90;;;;;;5049806;28;20071;-47
2021/08/11 06:27:06;;;;;;;17.80;12.90;;;15.50;99.90;;;;;;5050430;28;20390;-48
2021/08/11 06:29:32;;;;;;;21.92;14.52;;;15.50;99.90;;;;;;5050673;28;20037;-46
2021/08/11 06:31:57;;;;;;;16.65;12.32;;;15.60;99.90;;;;;;5050409;28;20440;-47
2021/08/11 06:34:24;;;;;;;17.05;12.52;;;15.60;99.90;;;;;;5049578;28;20499;-46
2021/08/11 06:36:53;;;;;;;20.98;15.43;;;15.70;99.90;;;;;;5050405;28;20027;-47
2021/08/11 06:39:19;;;;;;;20.30;13.73;;;15.80;99.90;;;;;;5049951;28;20108;-47
2021/08/11 06:41:45;;;;;;;18.67;13.48;;;15.80;99.90;;;;;;5049721;28;20029;-45
2021/08/11 06:44:11;;;;;;;15.90;12.55;;;15.90;99.90;;;;;;5049115;28;20024;-46
2021/08/11 06:46:36;;;;;;;21.15;13.98;;;16.00;99.90;;;;;;5049837;28;20184;-48
2021/08/11 06:49:02;;;;;;;17.08;12.73;;;16.10;99.90;;;;;;5049736;28;20398;-45
2021/08/11 06:51:28;;;;;;;18.83;13.25;;;16.10;99.90;;;;;;5049557;28;20209;-46
2021/08/11 06:53:53;;;;;;;23.67;13.25;;;16.20;99.90;;;;;;5048947;28;20179;-46
2021/08/11 06:56:18;;;;;;;21.50;15.48;;;16.30;99.90;;;;;;5049549;28;20060;-46
2021/08/11 06:58:44;;;;;;;20.77;13.38;;;16.30;99.90;;;;;;5049580;28;20488;-48
2021/08/11 07:01:09;;;;;;;20.45;14.75;;;16.40;99.90;;;;;;5049424;28;20021;-46
2021/08/11 07:03:35;;;;;;;24.15;14.32;;;16.50;99.90;;;;;;5048694;28;20059;-46
2021/08/11 07:06:01;;;;;;;21.80;15.55;;;16.60;99.90;;;;;;5049441;28;20219;-49
2021/08/11 07:08:27;;;;;;;22.08;14.70;;;16.70;99.90;;;;;;5049232;28;20025;-47
2021/08/11 07:10:53;;;;;;;19.25;12.23;;;16.90;99.90;;;;;;5049311;28;20029;-47
2021/08/11 07:13:20;;;;;;;21.35;14.13;;;16.90;99.90;;;;;;5048871;28;20456;-46
2021/08/11 07:15:45;;;;;;;18.33;11.68;;;17.10;99.90;;;;;;5047818;28;20039;-47
2021/08/11 07:18:15;;;;;;;20.75;12.65;;;17.30;99.90;;;;;;5047815;28;20414;-47
2021/08/11 07:20:41;;;;;;;17.92;11.32;;;17.40;99.90;;;;;;5049107;28;20036;-48
2021/08/11 07:23:06;;;;;;;18.77;13.15;;;17.70;99.90;;;;;;5049009;28;20041;-47
2021/08/11 07:25:32;;;;;;;16.63;12.15;;;17.80;99.90;;;;;;5048400;28;20129;-47
2021/08/11 07:27:58;;;;;;;16.45;11.35;;;18.00;99.90;;;;;;5048991;28;20105;-49
2021/08/11 07:30:23;;;;;;;16.30;13.23;;;18.10;99.90;;;;;;5048968;28;20057;-46
2021/08/11 07:32:49;;;;;;;17.02;12.02;;;18.20;99.90;;;;;;5047758;28;20502;-46
2021/08/11 07:35:15;;;;;;;16.85;13.48;;;18.40;99.90;;;;;;5048548;28;20044;-46
2021/08/11 07:37:48;;;;;;;18.63;13.70;;;18.50;99.90;;;;;;5047849;28;20443;-47
2021/08/11 07:40:14;;;;;;;21.05;14.25;;;18.60;99.90;;;;;;5048991;28;20021;-46
2021/08/11 07:42:41;;;;;;;19.67;14.98;;;18.60;99.90;;;;;;5048895;28;20021;-49
2021/08/11 07:45:08;;;;;;;24.33;16.55;;;18.60;99.90;;;;;;5047663;28;20017;-46
2021/08/11 07:47:33;;;;;;;20.20;14.63;;;18.70;99.90;;;;;;5048719;28;20013;-47
2021/08/11 07:49:59;;;;;;;24.20;17.45;;;18.90;99.90;;;;;;5048696;28;20032;-47
2021/08/11 07:52:24;;;;;;;24.45;16.52;;;19.10;99.90;;;;;;5048647;28;20719;-46
2021/08/11 07:54:50;;;;;;;19.02;14.45;;;19.40;99.90;;;;;;5046654;28;20029;-46
2021/08/11 07:57:15;;;;;;;20.70;15.60;;;19.60;99.90;;;;;;5048749;28;20494;-46
2021/08/11 07:59:41;;;;;;;16.67;12.70;;;19.60;99.90;;;;;;5048537;28;20082;-48
2021/08/11 08:02:10;;;;;;;19.25;14.90;;;19.50;99.90;;;;;;5048648;28;20028;-47
2021/08/11 08:04:35;;;;;;;22.35;19.08;;;19.60;99.90;;;;;;5048032;28;20072;-46
2021/08/11 08:07:01;;;;;;;25.17;17.95;;;19.60;99.90;;;;;;5048262;28;20053;-45
2021/08/11 08:09:27;;;;;;;17.35;15.07;;;19.50;99.90;;;;;;5048308;28;20032;-46
2021/08/11 08:11:52;;;;;;;24.15;18.27;;;19.90;99.90;;;;;;5048283;28;20036;-47
2021/08/11 08:14:17;;;;;;;20.77;16.17;;;20.10;99.90;;;;;;5047466;28;20041;-46
2021/08/11 08:16:43;;;;;;;19.75;16.55;;;20.30;99.90;;;;;;5047048;28;20114;-46
2021/08/11 08:19:09;;;;;;;19.50;15.30;;;20.30;99.90;;;;;;5046820;28;20394;-47
2021/08/11 08:21:35;;;;;;;17.67;15.75;;;20.50;99.90;;;;;;5048023;28;20025;-47
2021/08/11 08:24:00;;;;;;;15.68;13.73;;;20.70;99.90;;;;;;5047373;28;20029;-47
2021/08/11 08:26:26;;;;;;;17.35;14.68;;;20.90;99.90;;;;;;5046242;28;20022;-49
2021/08/11 08:28:51;;;;;;;15.35;12.63;;;21.80;99.90;;;;;;5046605;28;20360;-48
2021/08/11 08:31:17;;;;;;;13.40;10.32;;;22.40;99.90;;;;;;5047446;28;20052;-48
2021/08/11 08:33:42;;;;;;;13.57;11.30;;;23.40;99.90;;;;;;5047101;28;20509;-47
2021/08/11 08:36:09;;;;;;;11.30;10.10;;;24.30;99.90;;;;;;5047018;28;20037;-46
2021/08/11 08:38:35;;;;;;;14.32;11.43;;;24.30;99.90;;;;;;5047049;28;20043;-46
2021/08/11 08:41:01;;;;;;;15.13;9.82;;;23.80;99.90;;;;;;5048173;28;20029;-47
2021/08/11 08:43:27;;;;;;;14.85;11.18;;;23.90;99.90;;;;;;5047381;28;20122;-47
2021/08/11 08:45:52;;;;;;;10.75;8.38;;;24.60;99.50;;;;;;5046719;28;20102;-47
2021/08/11 08:48:18;;;;;;;13.40;9.50;;;24.90;98.50;;;;;;5049984;28;20082;-48
2021/08/11 08:50:48;;;;;;;10.38;8.57;;;24.90;98.10;;;;;;5050592;28;20025;-47
2021/08/11 08:53:19;;;;;;;11.43;8.30;;;24.50;97.90;;;;;;5050137;28;20520;-47
2021/08/11 08:55:46;;;;;;;9.90;8.32;;;23.80;97.40;;;;;;5061375;28;20069;-47
2021/08/11 08:58:12;;;;;;;11.85;7.45;;;24.10;98.80;;;;;;5055730;28;20021;-47
2021/08/11 09:00:37;;;;;;;12.68;7.78;;;25.00;97.60;;;;;;5057715;28;20039;-47
2021/08/11 09:03:05;;;;;;;8.27;6.10;;;26.10;95.00;;;;;;5050263;28;20600;-47
2021/08/11 09:05:30;;;;;;;9.63;7.00;;;27.40;93.40;;;;;;5053502;28;20024;-48
2021/08/11 09:07:56;;;;;;;9.30;6.70;;;28.00;91.20;;;;;;5055513;28;20027;-47
2021/08/11 09:10:24;;;;;;;10.68;7.50;;;28.90;84.70;;;;;;5050165;28;20086;-48
2021/08/11 09:12:51;;;;;;;14.10;8.13;;;28.40;84.00;;;;;;5066635;28;20475;-54
2021/08/11 09:15:36;;;;;;;9.23;6.30;;;29.40;78.10;;;;;;5068372;28;20028;-53
2021/08/11 09:18:26;;;;;;;7.28;5.70;;;28.70;77.60;;;;;;5061315;28;20257;-55
2021/08/11 09:21:06;;;;;;;7.68;6.43;;;28.20;79.30;;;;;;5067136;28;20036;-55
2021/08/11 09:23:40;;;;;;;8.73;5.80;;;27.70;79.30;;;;;;5065487;28;20164;-54
2021/08/11 09:26:11;;;;;;;11.00;7.35;;;27.60;78.90;;;;;;5071072;28;20031;-54
2021/08/11 09:28:39;;;;;;;9.55;6.05;;;26.90;79.20;;;;;;5071000;28;20025;-55
2021/08/11 09:31:23;;;;;;;7.07;5.38;;;26.70;83.30;;;;;;5070676;28;20090;-54
2021/08/11 09:33:51;;;;;;;13.27;7.40;;;26.50;81.60;;;;;;5068950;28;20032;-55
2021/08/11 09:36:16;;;;;;;16.45;9.07;;;25.80;83.10;;;;;;5066696;28;20270;-54
2021/08/11 09:39:00;;;;;;;8.90;5.60;;;25.30;83.00;;;;;;5069761;28;20612;-54
2021/08/11 09:41:26;;;;;;;9.18;6.70;;;25.20;85.70;;;;;;5069797;28;20177;-54
2021/08/11 09:44:08;;;;;;;11.00;7.15;;;25.70;85.60;;;;;;5068855;28;20111;-54
2021/08/11 09:46:33;;;;;;;9.80;7.05;;;25.80;84.90;;;;;;5069620;28;20078;-54
2021/08/11 09:48:59;;;;;;;7.60;5.70;;;26.00;84.40;;;;;;5070904;28;20099;-54
2021/08/11 09:51:25;;;;;;;10.85;5.97;;;26.70;84.60;;;;;;5069597;28;20119;-54
2021/08/11 09:53:50;;;;;;;6.65;5.30;;;27.80;82.10;;;;;;5070349;28;20024;-54
2021/08/11 09:56:16;;;;;;;10.55;6.53;;;28.10;81.20;;;;;;5069300;28;20074;-54
2021/08/11 09:58:59;;;;;;;7.40;5.15;;;28.00;77.50;;;;;;5070684;28;20116;-54
2021/08/11 10:01:26;;;;;;;6.63;5.03;;;28.10;77.40;;;;;;5070932;28;20039;-55
2021/08/11 10:04:00;;;;;;;7.70;5.75;;;28.00;77.40;;;;;;5069673;28;20029;-54
2021/08/11 10:06:28;;;;;;;8.05;5.32;;;28.40;74.20;;;;;;5070690;28;20036;-55
2021/08/11 10:08:54;;;;;;;9.93;6.07;;;28.80;70.70;;;;;;5070111;28;20040;-54
2021/08/11 10:11:38;;;;;;;10.57;5.20;;;28.40;70.60;;;;;;5069053;28;20067;-54
2021/08/11 10:14:07;;;;;;;7.35;5.20;;;27.50;72.80;;;;;;5067991;28;20123;-54
2021/08/11 10:16:34;;;;;;;6.57;4.90;;;28.10;73.70;;;;;;5070254;28;20383;-54
2021/08/11 10:19:03;;;;;;;8.40;5.97;;;27.90;71.70;;;;;;5068762;28;20028;-54
2021/08/11 10:21:30;;;;;;;7.43;5.40;;;28.20;73.80;;;;;;5055137;28;20025;-54
2021/08/11 10:23:55;;;;;;;8.18;5.32;;;28.40;75.80;;;;;;5048125;28;20036;-54
2021/08/11 10:26:21;;;;;;;6.15;4.93;;;28.70;76.00;;;;;;5050205;28;20033;-54
2021/08/11 10:28:47;;;;;;;10.27;5.95;;;28.70;70.40;;;;;;5050008;28;20032;-57
2021/08/11 10:31:13;;;;;;;9.20;4.95;;;28.30;68.20;;;;;;5049922;28;20029;-54
2021/08/11 10:33:40;;;;;;;6.93;4.72;;;27.80;71.40;;;;;;5047966;28;20025;-53
2021/08/11 10:36:06;;;;;;;10.05;6.05;;;27.20;73.10;;;;;;5050016;28;20048;-53
2021/08/11 10:38:35;;;;;;;9.15;6.03;;;26.30;76.10;;;;;;5049995;28;20429;-53
2021/08/11 10:41:01;;;;;;;10.13;6.10;;;25.60;78.10;;;;;;5049791;28;20029;-53
2021/08/11 10:43:33;;;;;;;8.95;5.95;;;25.30;81.40;;;;;;5048866;28;20352;-54
2021/08/11 10:46:04;;;;;;;10.32;5.40;;;25.90;80.70;;;;;;5048404;28;20204;-53
2021/08/11 10:48:29;;;;;;;17.50;6.40;;;26.10;79.00;;;;;;5049792;28;20112;-53
2021/08/11 10:50:55;;;;;;;9.07;6.00;;;26.10;80.50;;;;;;5049585;28;20108;-53
2021/08/11 10:53:21;;;;;;;12.30;6.30;;;27.20;79.60;;;;;;5061459;28;20036;-53
2021/08/11 10:55:49;;;;;;;7.75;4.93;;;28.30;76.20;;;;;;5069907;28;20032;-54
2021/08/11 10:58:37;;;;;;;7.82;5.35;;;29.40;72.90;;;;;;5069552;28;20027;-54
2021/08/11 11:01:04;;;;;;;7.47;5.43;;;31.20;68.90;;;;;;5069544;28;20024;-54
2021/08/11 11:03:50;;;;;;;7.75;5.60;;;32.10;65.90;;;;;;5055937;28;20043;-49
2021/08/11 11:06:16;;;;;;;7.05;5.07;;;32.40;65.90;;;;;;5053760;28;20502;-47
2021/08/11 11:08:41;;;;;;;9.45;5.72;;;33.30;60.80;;;;;;5068277;28;20060;-49
2021/08/11 11:11:28;;;;;;;10.80;4.68;;;32.70;59.90;;;;;;5068947;28;20016;-47
2021/08/11 11:13:54;;;;;;;6.47;5.18;;;31.70;60.60;;;;;;5065269;28;20033;-49
2021/08/11 11:16:20;;;;;;;7.03;5.70;;;31.10;62.00;;;;;;5067145;28;20500;-47
2021/08/11 11:19:07;;;;;;;6.07;4.88;;;30.70;61.50;;;;;;5067100;28;20028;-50
2021/08/11 11:21:33;;;;;;;6.38;4.88;;;30.20;66.60;;;;;;5067786;28;20025;-50
2021/08/11 11:23:59;;;;;;;6.65;4.93;;;30.20;64.50;;;;;;5067158;28;20497;-50
2021/08/11 11:26:34;;;;;;;7.40;4.50;;;30.40;65.70;;;;;;5065338;28;20035;-47
2021/08/11 11:29:05;;;;;;;6.50;4.68;;;31.00;62.10;;;;;;5067056;28;20025;-47
2021/08/11 11:31:33;;;;;;;6.15;4.30;;;32.00;60.40;;;;;;5066942;28;20109;-47
2021/08/11 11:34:17;;;;;;;9.60;4.45;;;32.70;58.90;;;;;;5061310;28;20032;-48
2021/08/11 11:36:43;;;;;;;5.90;4.22;;;33.10;56.90;;;;;;5064610;28;20382;-47
2021/08/11 11:39:12;;;;;;;8.48;4.38;;;33.70;56.20;;;;;;5065276;28;20028;-49
2021/08/11 11:41:59;;;;;;;8.05;4.97;;;33.50;53.50;;;;;;5066631;28;20028;-50
2021/08/11 11:44:57;;;;;;;6.85;3.95;;;32.50;54.30;;;;;;5067044;28;20470;-49
2021/08/11 11:47:35;;;;;;;5.70;4.40;;;32.70;55.10;;;;;;5067636;28;20077;-48
2021/08/11 11:50:23;;;;;;;5.93;5.05;;;32.00;57.30;;;;;;5067477;28;20037;-47
2021/08/11 11:52:53;;;;;;;5.10;4.47;;;31.00;60.50;;;;;;5067373;28;20021;-48
2021/08/11 11:55:26;;;;;;;6.13;4.22;;;30.40;58.40;;;;;;5067009;28;20379;-47
2021/08/11 11:57:53;;;;;;;6.53;4.78;;;29.80;59.00;;;;;;5067419;28;20024;-49
2021/08/11 12:00:19;;;;;;;6.50;4.30;;;28.80;61.60;;;;;;5067402;28;20027;-47
2021/08/11 12:02:50;;;;;;;6.20;4.50;;;28.70;61.40;;;;;;5067468;28;20025;-48
2021/08/11 12:05:15;;;;;;;5.72;4.50;;;28.10;63.90;;;;;;5064007;28;20052;-46
2021/08/11 12:07:41;;;;;;;7.57;4.90;;;27.80;65.80;;;;;;5054713;28;20086;-50
2021/08/11 12:10:07;;;;;;;7.90;5.28;;;27.70;65.90;;;;;;5056420;28;20040;-48
2021/08/11 12:12:32;;;;;;;7.60;5.03;;;27.60;63.50;;;;;;5055762;28;20032;-47
2021/08/11 12:15:19;;;;;;;7.03;5.13;;;27.60;64.80;;;;;;5056246;28;20286;-47
2021/08/11 12:17:45;;;;;;;5.70;4.57;;;26.60;63.70;;;;;;5056272;28;20025;-48
2021/08/11 12:20:34;;;;;;;9.02;5.05;;;26.40;65.60;;;;;;5056711;28;20563;-47
2021/08/11 12:23:02;;;;;;;13.50;5.53;;;26.30;68.00;;;;;;5057827;28;20031;-48
2021/08/11 12:25:29;;;;;;;9.30;4.75;;;26.20;66.70;;;;;;5056283;28;20116;-48
2021/08/11 12:28:14;;;;;;;5.85;4.40;;;26.10;66.50;;;;;;5055874;28;20146;-49
2021/08/11 12:30:54;;;;;;;5.68;4.50;;;26.60;71.70;;;;;;5059260;28;20019;-47
2021/08/11 12:33:22;;;;;;;6.00;4.10;;;27.10;69.60;;;;;;5061883;28;20021;-46
2021/08/11 12:35:50;;;;;;;4.70;4.00;;;27.50;65.80;;;;;;5061270;28;20179;-49
2021/08/11 12:38:32;;;;;;;4.00;3.60;;;27.40;64.40;;;;;;5060177;28;20025;-46